Aviation Digital Data Service (ADDS)

Output produced by METARs form (1546 UTC 23 October 2014)
found at http://aviationweather.gov/adds/metars/
 
KCLT 231447Z 2315/2412 34008KT P6SM SKC 
     FM240000 33003KT P6SM FEW250